createdAt,value
2023-01-11T00:01:57.769Z,12.43
2023-01-11T00:04:30.696Z,12.32
2023-01-11T00:07:03.015Z,13.95
2023-01-11T00:09:34.737Z,14.95
2023-01-11T00:12:06.531Z,12.02
2023-01-11T00:14:38.203Z,11.75
2023-01-11T00:17:09.941Z,12.20
2023-01-11T00:19:41.957Z,16.58
2023-01-11T00:22:13.791Z,16.35
2023-01-11T00:24:45.505Z,12.27
2023-01-11T00:27:19.924Z,12.63
2023-01-11T00:29:51.613Z,14.73
2023-01-11T00:32:23.529Z,11.45
2023-01-11T00:34:55.196Z,17.05
2023-01-11T00:37:26.907Z,14.70
2023-01-11T00:39:58.621Z,14.55
2023-01-11T00:42:48.966Z,10.90
2023-01-11T00:45:39.302Z,11.82
2023-01-11T00:48:11.148Z,15.55
2023-01-11T00:50:42.833Z,15.27
2023-01-11T00:53:14.617Z,11.95
2023-01-11T00:55:46.440Z,16.13
2023-01-11T00:58:18.080Z,14.10
2023-01-11T01:00:49.754Z,14.48
2023-01-11T01:03:21.405Z,12.15
2023-01-11T01:05:55.879Z,11.20
2023-01-11T01:08:27.798Z,10.85
2023-01-11T01:10:59.454Z,9.93
2023-01-11T01:13:49.879Z,12.23
2023-01-11T01:16:21.640Z,13.88
2023-01-11T01:18:53.985Z,10.95
2023-01-11T01:21:27.491Z,13.52
2023-01-11T01:24:00.542Z,15.32
2023-01-11T01:26:32.236Z,15.60
2023-01-11T01:29:04.600Z,15.57
2023-01-11T01:31:36.323Z,14.75
2023-01-11T01:34:11.175Z,12.52
2023-01-11T01:36:43.251Z,13.90
2023-01-11T01:39:15.183Z,15.52
2023-01-11T01:41:47.171Z,12.43
2023-01-11T01:44:52.617Z,12.88
2023-01-11T01:47:43.439Z,12.50
2023-01-11T01:50:25.403Z,12.95
2023-01-11T01:53:05.724Z,12.48
2023-01-11T01:55:41.148Z,14.48
2023-01-11T01:58:16.028Z,10.20
2023-01-11T02:03:24.632Z,15.23
2023-01-11T02:05:56.410Z,9.02
2023-01-11T02:08:35.808Z,12.98
2023-01-11T02:11:27.920Z,9.90
2023-01-11T02:14:03.496Z,8.65
2023-01-11T02:16:35.522Z,15.20
2023-01-11T02:19:14.784Z,11.02
2023-01-11T02:22:06.993Z,15.13
2023-01-11T02:24:50.967Z,12.65
2023-01-11T02:27:47.617Z,13.02
2023-01-11T02:30:31.227Z,12.50
2023-01-11T02:33:18.774Z,12.15
2023-01-11T02:36:02.847Z,10.60
2023-01-11T02:38:45.617Z,13.98
2023-01-11T02:41:51.199Z,10.27
2023-01-11T02:44:57.295Z,11.55
2023-01-11T02:47:52.509Z,15.18
2023-01-11T02:50:36.103Z,14.80
2023-01-11T02:53:12.720Z,12.40
2023-01-11T02:55:49.427Z,14.27
2023-01-11T02:58:25.148Z,11.00
2023-01-11T03:00:58.780Z,10.00
2023-01-11T03:03:31.066Z,8.45
2023-01-11T03:06:08.555Z,8.63
2023-01-11T03:09:01.882Z,11.10
2023-01-11T03:12:21.674Z,11.63
2023-01-11T03:15:32.245Z,9.18
2023-01-11T03:18:09.891Z,11.00
2023-01-11T03:20:46.859Z,9.40
2023-01-11T03:23:31.100Z,10.75
2023-01-11T03:26:02.690Z,8.83
2023-01-11T03:29:10.662Z,9.20
2023-01-11T03:32:14.318Z,11.77
2023-01-11T03:35:10.643Z,10.18
2023-01-11T03:37:51.139Z,11.23
2023-01-11T03:40:31.093Z,10.57
2023-01-11T03:43:13.538Z,10.55
2023-01-11T03:45:57.369Z,11.45
2023-01-11T03:48:53.113Z,11.65
2023-01-11T03:51:32.131Z,11.90
2023-01-11T03:54:07.258Z,12.82
2023-01-11T03:56:49.271Z,7.45
2023-01-11T03:59:20.977Z,11.93
2023-01-11T04:01:54.495Z,12.55
2023-01-11T04:04:26.406Z,12.88
2023-01-11T04:06:58.459Z,11.23
2023-01-11T04:09:30.153Z,11.57
2023-01-11T04:12:01.819Z,12.93
2023-01-11T04:14:33.562Z,12.00
2023-01-11T04:17:05.703Z,10.23
2023-01-11T04:19:38.670Z,11.30
2023-01-11T04:22:10.362Z,11.77
2023-01-11T04:24:42.141Z,8.88
2023-01-11T04:27:13.844Z,8.82
2023-01-11T04:29:45.545Z,9.77
2023-01-11T04:32:17.315Z,8.68
2023-01-11T04:34:50.538Z,7.90
2023-01-11T04:37:22.213Z,8.10
2023-01-11T04:39:53.913Z,7.65
2023-01-11T04:42:25.947Z,8.25
2023-01-11T04:44:57.607Z,8.38
2023-01-11T04:47:29.286Z,10.57
2023-01-11T04:50:01.586Z,11.27
2023-01-11T04:52:33.258Z,10.25
2023-01-11T04:55:05.371Z,11.05
2023-01-11T04:57:37.087Z,9.93
2023-01-11T05:00:10.993Z,11.20
2023-01-11T05:02:42.887Z,9.17
2023-01-11T05:05:17.557Z,9.82
2023-01-11T05:07:49.284Z,7.47
2023-01-11T05:10:21.173Z,7.63
2023-01-11T05:12:52.870Z,10.98
2023-01-11T05:15:24.587Z,9.05
2023-01-11T05:17:56.255Z,8.63
2023-01-11T05:20:27.969Z,12.73
2023-01-11T05:22:59.661Z,17.13
2023-01-11T05:25:31.372Z,15.20
2023-01-11T05:28:03.061Z,15.93
2023-01-11T05:30:34.753Z,12.25
2023-01-11T05:33:10.422Z,11.13
2023-01-11T05:35:42.147Z,9.88
2023-01-11T05:38:13.902Z,8.18
2023-01-11T05:40:53.124Z,10.55
2023-01-11T05:43:25.504Z,9.68
2023-01-11T05:45:58.220Z,8.00
2023-01-11T05:48:29.940Z,9.10
2023-01-11T05:51:02.328Z,8.55
2023-01-11T05:53:34.010Z,9.73
2023-01-11T05:56:06.453Z,12.02
2023-01-11T05:58:38.198Z,9.85
2023-01-11T06:01:12.637Z,15.98
2023-01-11T06:03:45.278Z,13.75
2023-01-11T06:06:18.543Z,10.13
2023-01-11T06:08:50.277Z,13.45
2023-01-11T06:11:23.351Z,12.68
2023-01-11T06:13:55.277Z,12.27
2023-01-11T06:16:27.106Z,15.70
2023-01-11T06:18:58.856Z,12.07
2023-01-11T06:21:30.535Z,12.88
2023-01-11T06:24:02.249Z,11.45
2023-01-11T06:26:35.195Z,9.07
2023-01-11T06:29:06.888Z,9.93
2023-01-11T06:31:38.558Z,8.25
2023-01-11T06:34:10.377Z,8.25
2023-01-11T06:36:42.195Z,9.55
2023-01-11T06:39:13.897Z,7.35
2023-01-11T06:41:45.566Z,6.60
2023-01-11T06:44:17.316Z,10.57
2023-01-11T06:46:49.177Z,7.60
2023-01-11T06:49:20.877Z,7.47
2023-01-11T06:51:53.056Z,9.93
2023-01-11T06:54:25.764Z,9.80
2023-01-11T06:56:57.962Z,6.93
2023-01-11T06:59:29.657Z,8.40
2023-01-11T07:02:04.344Z,6.68
2023-01-11T07:04:36.174Z,8.52
2023-01-11T07:07:08.011Z,6.82
2023-01-11T07:09:39.752Z,8.02
2023-01-11T07:12:11.443Z,7.07
2023-01-11T07:14:43.185Z,8.55
2023-01-11T07:17:15.065Z,8.57
2023-01-11T07:19:46.737Z,6.25
2023-01-11T07:22:18.494Z,8.57
2023-01-11T07:24:52.149Z,7.05
2023-01-11T07:27:23.945Z,6.95
2023-01-11T07:29:55.710Z,7.63
2023-01-11T07:32:28.086Z,10.40
2023-01-11T07:34:59.796Z,8.07
2023-01-11T07:37:35.251Z,7.47
2023-01-11T07:40:07.785Z,8.00
2023-01-11T07:42:58.248Z,6.13
2023-01-11T07:45:45.412Z,8.07
2023-01-11T07:48:27.098Z,8.90
2023-01-11T07:50:59.264Z,7.60
2023-01-11T07:53:33.902Z,7.00
2023-01-11T07:56:05.800Z,7.22
2023-01-11T07:58:37.520Z,6.65
2023-01-11T08:01:09.319Z,8.57
2023-01-11T08:03:41.138Z,7.85
2023-01-11T08:06:14.623Z,8.18
2023-01-11T08:08:46.304Z,8.30
2023-01-11T08:11:36.804Z,5.95
2023-01-11T08:14:29.075Z,7.30
2023-01-11T08:17:03.744Z,10.10
2023-01-11T08:19:35.787Z,8.18
2023-01-11T08:22:07.799Z,10.20
2023-01-11T08:24:39.532Z,13.88
2023-01-11T08:27:11.452Z,7.88
2023-01-11T08:29:44.471Z,8.95
2023-01-11T08:32:16.173Z,10.57
2023-01-11T08:34:48.093Z,8.52
2023-01-11T08:37:19.799Z,5.40
2023-01-11T08:39:51.567Z,4.88
2023-01-11T08:42:23.323Z,6.68
2023-01-11T08:44:55.540Z,5.90
2023-01-11T08:47:27.256Z,5.75
2023-01-11T08:49:58.982Z,6.50
2023-01-11T08:52:30.732Z,6.43
2023-01-11T08:55:02.468Z,8.07
2023-01-11T08:57:35.355Z,7.80
2023-01-11T09:00:11.587Z,12.43
2023-01-11T09:02:45.429Z,9.18
2023-01-11T09:05:20.803Z,7.40
2023-01-11T09:07:57.631Z,8.77
2023-01-11T09:10:29.925Z,3.78
2023-01-11T09:13:01.737Z,8.73
2023-01-11T09:15:33.478Z,8.00
2023-01-11T09:18:05.474Z,8.32
2023-01-11T09:20:37.154Z,6.90
2023-01-11T09:23:08.885Z,7.13
2023-01-11T09:25:40.625Z,4.80
2023-01-11T09:28:12.376Z,6.70
2023-01-11T09:30:44.238Z,5.93
2023-01-11T09:33:15.951Z,5.45
2023-01-11T09:35:49.247Z,6.15
2023-01-11T09:38:21.111Z,7.60
2023-01-11T09:41:08.353Z,5.30
2023-01-11T09:43:51.084Z,6.60
2023-01-11T09:46:24.706Z,9.90
2023-01-11T09:48:59.665Z,7.25
2023-01-11T09:51:35.395Z,6.65
2023-01-11T09:54:11.817Z,6.72
2023-01-11T09:57:17.138Z,8.43
2023-01-11T09:59:58.350Z,8.35
2023-01-11T10:02:38.263Z,7.15
2023-01-11T10:05:31.997Z,5.38
2023-01-11T10:18:22.039Z,5.60
2023-01-11T10:18:32.627Z,5.50
2023-01-11T10:21:07.184Z,6.78
2023-01-11T10:23:50.206Z,4.97
2023-01-11T10:26:28.749Z,4.18
2023-01-11T10:29:21.224Z,5.93
2023-01-11T10:32:02.928Z,4.43
2023-01-11T10:35:13.690Z,5.28
2023-01-11T10:37:50.210Z,3.47
2023-01-11T10:40:40.474Z,6.38
2023-01-11T10:43:21.875Z,6.25
2023-01-11T10:45:59.356Z,4.57
2023-01-11T10:48:38.008Z,5.18
2023-01-11T10:51:09.699Z,7.25
2023-01-11T10:54:14.295Z,5.50
2023-01-11T10:57:18.307Z,4.78
2023-01-11T11:00:22.662Z,7.63
2023-01-11T11:03:06.801Z,4.18
2023-01-11T11:05:50.310Z,3.42
2023-01-11T11:08:56.356Z,6.10
2023-01-11T11:11:57.901Z,3.97
2023-01-11T11:14:59.997Z,4.47
2023-01-11T11:17:42.126Z,5.28
2023-01-11T11:20:17.019Z,7.68
2023-01-11T11:22:50.768Z,5.03
2023-01-11T11:25:27.561Z,4.07
2023-01-11T11:28:15.493Z,3.65
2023-01-11T11:30:48.128Z,4.95
2023-01-11T11:33:26.535Z,4.28
2023-01-11T11:36:06.576Z,5.68
2023-01-11T11:38:41.878Z,6.25
2023-01-11T11:41:17.084Z,5.03
2023-01-11T11:43:48.901Z,5.32
2023-01-11T11:46:27.269Z,6.03
2023-01-11T11:49:18.221Z,2.95
2023-01-11T11:51:52.051Z,2.67
2023-01-11T11:54:26.594Z,5.87
2023-01-11T11:57:18.171Z,4.97
2023-01-11T12:00:02.373Z,5.43
2023-01-11T12:02:39.011Z,2.72
2023-01-11T12:05:11.331Z,3.95
2023-01-11T12:07:55.293Z,4.78
2023-01-11T12:10:29.159Z,4.10
2023-01-11T12:13:03.074Z,3.45
2023-01-11T12:15:37.576Z,4.30
2023-01-11T12:18:38.886Z,4.20
2023-01-11T12:21:21.757Z,4.55
2023-01-11T12:24:17.209Z,4.10
2023-01-11T12:29:40.751Z,4.53
2023-01-11T12:32:30.585Z,4.20
2023-01-11T12:35:25.230Z,4.18
2023-01-11T12:38:24.691Z,4.63
2023-01-11T12:41:08.782Z,4.38
2023-01-11T12:43:58.758Z,5.53
2023-01-11T12:46:45.354Z,4.28
2023-01-11T12:49:43.092Z,5.00
2023-01-11T12:52:33.545Z,5.32
2023-01-11T12:55:11.419Z,5.13
2023-01-11T12:58:14.166Z,4.68
2023-01-11T13:01:04.503Z,5.68
2023-01-11T13:03:57.717Z,4.30
2023-01-11T13:06:57.340Z,3.78
2023-01-11T13:10:21.147Z,6.20
2023-01-11T13:13:27.953Z,4.88
2023-01-11T13:16:37.517Z,4.30
2023-01-11T13:19:21.335Z,8.68
2023-01-11T13:21:56.378Z,4.38
2023-01-11T13:24:31.309Z,4.43
2023-01-11T13:27:07.496Z,6.82
2023-01-11T13:29:45.625Z,5.65
2023-01-11T13:32:22.460Z,5.63
2023-01-11T13:35:15.348Z,4.72
2023-01-11T13:37:55.350Z,3.05
2023-01-11T13:40:38.558Z,4.13
2023-01-11T13:43:18.342Z,7.18
2023-01-11T13:46:03.286Z,6.05
2023-01-11T13:48:42.086Z,4.53
2023-01-11T13:51:31.536Z,5.47
2023-01-11T13:54:22.445Z,3.55
2023-01-11T13:57:13.243Z,5.63
2023-01-11T13:59:51.487Z,12.05
2023-01-11T14:02:48.610Z,7.65
2023-01-11T14:05:22.775Z,4.70
2023-01-11T14:08:19.050Z,4.88
2023-01-11T14:11:06.027Z,4.45
2023-01-11T14:14:12.512Z,8.95
2023-01-11T14:16:50.205Z,5.18
2023-01-11T14:19:28.799Z,6.28
2023-01-11T14:22:31.031Z,5.40
2023-01-11T14:26:01.426Z,3.67
2023-01-11T14:28:39.045Z,5.43
2023-01-11T14:31:32.562Z,5.60
2023-01-11T14:34:23.012Z,5.97
2023-01-11T14:37:00.675Z,4.63
2023-01-11T14:39:43.117Z,4.53
2023-01-11T14:42:35.319Z,5.47
2023-01-11T14:45:22.441Z,4.68
2023-01-11T14:47:54.053Z,5.93
2023-01-11T14:50:41.012Z,4.70
2023-01-11T14:53:19.643Z,7.35
2023-01-11T14:55:54.315Z,5.45
2023-01-11T15:01:08.622Z,6.03
2023-01-11T15:03:47.186Z,6.20
2023-01-11T15:06:21.509Z,7.57
2023-01-11T15:08:55.348Z,7.40
2023-01-11T15:11:37.059Z,5.57
2023-01-11T15:14:23.575Z,6.88
2023-01-11T15:17:20.920Z,6.88
2023-01-11T15:19:54.863Z,8.38
2023-01-11T15:22:30.832Z,7.65
2023-01-11T15:25:07.763Z,5.20
2023-01-11T15:27:39.706Z,6.00
2023-01-11T15:30:29.898Z,6.53
2023-01-11T15:33:19.725Z,7.78
2023-01-11T15:35:57.589Z,7.93
2023-01-11T15:38:42.650Z,5.78
2023-01-11T15:44:54.800Z,8.38
2023-01-11T15:47:32.292Z,5.43
2023-01-11T15:50:25.144Z,6.22
2023-01-11T15:53:18.335Z,5.90
2023-01-11T15:56:27.966Z,8.00
2023-01-11T15:59:36.184Z,9.50
2023-01-11T16:02:34.668Z,7.18
2023-01-11T16:05:13.890Z,7.90
2023-01-11T16:08:15.438Z,7.35
2023-01-11T16:11:13.151Z,10.02
2023-01-11T16:13:55.868Z,9.52
2023-01-11T16:16:31.777Z,7.65
2023-01-11T16:19:20.194Z,7.18
2023-01-11T16:22:01.787Z,7.97
2023-01-11T16:24:42.630Z,6.63
2023-01-11T16:27:24.653Z,7.47
2023-01-11T16:29:57.943Z,7.47
2023-01-11T16:32:34.970Z,6.47
2023-01-11T16:35:24.381Z,7.82
2023-01-11T16:38:02.604Z,6.00
2023-01-11T16:40:42.452Z,7.75
2023-01-11T16:43:31.061Z,6.30
2023-01-11T16:46:03.382Z,7.43
2023-01-11T16:48:35.607Z,7.20
2023-01-11T16:51:10.402Z,6.38
2023-01-11T16:53:45.126Z,6.30
2023-01-11T16:59:15.494Z,8.18
2023-01-11T17:01:53.086Z,7.00
2023-01-11T17:04:33.927Z,7.82
2023-01-11T17:07:22.769Z,9.10
2023-01-11T17:10:16.565Z,7.68
2023-01-11T17:13:43.088Z,9.25
2023-01-11T17:16:16.184Z,7.80
2023-01-11T17:18:48.054Z,7.47
2023-01-11T17:21:24.154Z,8.05
2023-01-11T17:24:00.440Z,8.88
2023-01-11T17:26:42.614Z,8.35
2023-01-11T17:29:38.454Z,8.35
2023-01-11T17:32:38.073Z,11.10
2023-01-11T17:35:22.613Z,9.98
2023-01-11T17:38:06.454Z,11.35
2023-01-11T17:40:42.060Z,8.88
2023-01-11T17:43:44.751Z,9.43
2023-01-11T17:46:23.632Z,10.55
2023-01-11T17:48:59.669Z,10.63
2023-01-11T17:51:34.772Z,14.65
2023-01-11T17:54:21.854Z,10.75
2023-01-11T17:57:00.699Z,14.85
2023-01-11T17:59:32.374Z,10.80
2023-01-11T18:02:13.038Z,11.88
2023-01-11T18:04:59.661Z,10.65
2023-01-11T18:07:31.425Z,8.73
2023-01-11T18:10:03.966Z,10.80
2023-01-11T18:12:35.952Z,9.23
2023-01-11T18:15:08.393Z,9.05
2023-01-11T18:17:42.288Z,12.40
2023-01-11T18:20:14.028Z,11.55
2023-01-11T18:22:58.827Z,11.63
2023-01-11T18:25:33.897Z,10.27
2023-01-11T18:28:27.909Z,9.45
2023-01-11T18:31:01.933Z,10.55
2023-01-11T18:33:34.671Z,10.43
2023-01-11T18:36:22.574Z,10.55
2023-01-11T18:38:54.282Z,10.77
2023-01-11T18:41:44.893Z,10.55
2023-01-11T18:44:17.943Z,10.82
2023-01-11T18:46:49.622Z,9.98
2023-01-11T18:49:21.357Z,13.13
2023-01-11T18:51:53.041Z,11.52
2023-01-11T18:54:24.807Z,12.75
2023-01-11T18:56:58.804Z,10.50
2023-01-11T18:59:30.524Z,9.35
2023-01-11T19:02:16.522Z,10.38
2023-01-11T19:04:49.331Z,11.63
2023-01-11T19:07:21.907Z,8.70
2023-01-11T19:09:59.314Z,7.80
2023-01-11T19:12:31.278Z,10.07
2023-01-11T19:15:03.049Z,10.43
2023-01-11T19:17:34.902Z,10.95
2023-01-11T19:20:09.188Z,10.95
2023-01-11T19:22:41.928Z,14.77
2023-01-11T19:25:13.650Z,13.05
2023-01-11T19:27:45.379Z,16.80
2023-01-11T19:30:17.373Z,11.60
2023-01-11T19:32:53.012Z,7.90
2023-01-11T19:35:24.823Z,8.32
2023-01-11T19:37:56.568Z,8.60
2023-01-11T19:40:28.383Z,8.15
2023-01-11T19:43:03.122Z,8.63
2023-01-11T19:48:07.230Z,9.02
2023-01-11T19:50:41.739Z,9.52
2023-01-11T19:53:13.457Z,6.72
2023-01-11T19:55:45.663Z,6.95
2023-01-11T19:58:17.389Z,8.50
2023-01-11T20:00:49.121Z,7.68
2023-01-11T20:03:20.891Z,8.18
2023-01-11T20:05:52.590Z,6.90
2023-01-11T20:08:24.310Z,6.97
2023-01-11T20:10:56.518Z,8.30
2023-01-11T20:13:28.250Z,8.13
2023-01-11T20:16:08.413Z,8.80
2023-01-11T20:18:42.374Z,9.63
2023-01-11T20:21:14.157Z,6.75
2023-01-11T20:23:45.928Z,8.82
2023-01-11T20:26:18.104Z,9.05
2023-01-11T20:28:53.302Z,8.68
2023-01-11T20:31:27.909Z,9.32
2023-01-11T20:34:13.620Z,8.35
2023-01-11T20:36:45.592Z,10.60
2023-01-11T20:39:17.583Z,8.52
2023-01-11T20:41:51.880Z,8.57
2023-01-11T20:44:27.377Z,6.95
2023-01-11T20:46:59.893Z,8.15
2023-01-11T20:49:31.614Z,7.93
2023-01-11T20:52:03.716Z,7.82
2023-01-11T20:54:37.064Z,8.23
2023-01-11T20:57:12.594Z,6.50
2023-01-11T20:59:44.506Z,8.65
2023-01-11T21:02:16.470Z,8.80
2023-01-11T21:04:48.138Z,7.30
2023-01-11T21:07:19.968Z,8.82
2023-01-11T21:09:51.828Z,8.75
2023-01-11T21:12:24.011Z,10.02
2023-01-11T21:14:55.726Z,7.28
2023-01-11T21:17:27.917Z,7.43
2023-01-11T21:19:59.660Z,6.63
2023-01-11T21:22:31.357Z,6.32
2023-01-11T21:25:03.162Z,10.20
2023-01-11T21:27:34.905Z,7.18
2023-01-11T21:30:07.083Z,6.53
2023-01-11T21:32:38.997Z,7.43
2023-01-11T21:35:10.798Z,6.45
2023-01-11T21:37:42.535Z,6.53
2023-01-11T21:40:14.890Z,6.38
2023-01-11T21:42:46.600Z,6.90
2023-01-11T21:45:18.377Z,5.72
2023-01-11T21:47:50.108Z,8.27
2023-01-11T21:50:21.833Z,6.72
2023-01-11T21:52:55.089Z,7.80
2023-01-11T21:55:31.068Z,6.60
2023-01-11T21:58:02.828Z,7.35
2023-01-11T22:00:35.725Z,7.68
2023-01-11T22:03:07.483Z,6.00
2023-01-11T22:05:43.090Z,7.82
2023-01-11T22:08:15.073Z,7.63
2023-01-11T22:10:59.107Z,7.30
2023-01-11T22:13:32.076Z,7.43
2023-01-11T22:16:06.538Z,7.90
2023-01-11T22:18:38.394Z,7.15
2023-01-11T22:21:12.931Z,7.35
2023-01-11T22:23:46.091Z,7.40
2023-01-11T22:26:19.704Z,8.57
2023-01-11T22:29:14.128Z,8.82
2023-01-11T22:31:52.671Z,7.95
2023-01-11T22:34:25.099Z,10.10
2023-01-11T22:36:56.975Z,7.43
2023-01-11T22:39:29.570Z,8.35
2023-01-11T22:42:01.305Z,8.65
2023-01-11T22:44:35.220Z,6.95
2023-01-11T22:47:06.954Z,8.75
2023-01-11T22:49:38.652Z,9.48
2023-01-11T22:52:10.439Z,9.82
2023-01-11T22:54:42.548Z,9.70
2023-01-11T22:57:14.522Z,8.95
2023-01-11T22:59:46.215Z,9.13
2023-01-11T23:02:18.299Z,8.18
2023-01-11T23:04:49.995Z,12.15
2023-01-11T23:07:21.724Z,8.18
2023-01-11T23:09:53.457Z,11.52
2023-01-11T23:12:43.817Z,9.48
2023-01-11T23:15:15.564Z,9.05
2023-01-11T23:17:48.559Z,8.43
2023-01-11T23:20:20.286Z,10.48
2023-01-11T23:22:52.023Z,7.97
2023-01-11T23:25:23.718Z,9.05
2023-01-11T23:27:55.724Z,7.97
2023-01-11T23:30:27.595Z,9.60
2023-01-11T23:32:59.379Z,9.07
2023-01-11T23:35:31.429Z,8.85
2023-01-11T23:38:03.478Z,11.25
2023-01-11T23:40:55.699Z,8.68
2023-01-11T23:43:27.697Z,10.75
2023-01-11T23:46:23.169Z,10.05
2023-01-11T23:48:55.223Z,9.40
2023-01-11T23:51:26.950Z,7.93
2023-01-11T23:53:59.958Z,8.95
2023-01-11T23:56:32.800Z,8.98
2023-01-11T23:59:06.995Z,8.30
